Time;durP1;ratioP1;P1;durP2;ratioP2;P2;SDS_P1;SDS_P2;PMS_P1;PMS_P2;Temp;Humidity;BMP_temperature;BMP_pressure;BME280_temperature;BME280_humidity;BME280_pressure;Samples;Min_cycle;Max_cycle;Signal;HPM_P1;HPM_P2
2022/01/19 00:01:16;;;;;;;5.65;5.15;;;4.10;99.90;;;;;;5035090;28;20586;-74
2022/01/19 00:03:43;;;;;;;5.43;4.93;;;4.10;99.90;;;;;;5033822;28;20277;-74
2022/01/19 00:06:11;;;;;;;5.72;5.22;;;4.00;99.90;;;;;;5041053;28;20219;-73
2022/01/19 00:08:40;;;;;;;6.90;6.20;;;4.00;99.90;;;;;;5046742;28;20206;-74
2022/01/19 00:11:07;;;;;;;6.80;6.20;;;3.90;99.90;;;;;;5044018;28;20218;-72
2022/01/19 00:13:34;;;;;;;6.20;5.68;;;3.90;99.90;;;;;;5045221;28;20211;-73
2022/01/19 00:16:01;;;;;;;6.32;5.72;;;3.90;99.90;;;;;;5046049;28;20218;-73
2022/01/19 00:18:28;;;;;;;6.13;5.60;;;3.90;99.90;;;;;;5043873;28;20214;-73
2022/01/19 00:20:56;;;;;;;7.07;5.45;;;3.90;99.90;;;;;;5041096;28;20648;-73
2022/01/19 00:23:24;;;;;;;6.78;6.13;;;3.80;99.90;;;;;;5038802;28;20872;-73
2022/01/19 00:25:54;;;;;;;6.40;5.43;;;3.80;99.90;;;;;;5043171;28;20222;-74
2022/01/19 00:28:21;;;;;;;6.05;5.55;;;3.80;99.90;;;;;;5041764;28;20206;-74
2022/01/19 00:30:48;;;;;;;6.10;5.60;;;3.80;99.90;;;;;;5042033;28;20582;-74
2022/01/19 00:33:18;;;;;;;6.53;5.82;;;3.80;99.90;;;;;;5045706;28;20245;-74
2022/01/19 00:35:46;;;;;;;6.30;5.75;;;3.70;99.90;;;;;;5045260;28;20652;-73
2022/01/19 00:38:13;;;;;;;6.75;6.15;;;3.80;99.90;;;;;;5040636;28;20270;-74
2022/01/19 00:40:41;;;;;;;6.47;5.95;;;3.70;99.90;;;;;;5047558;28;20246;-74
2022/01/19 00:43:09;;;;;;;6.45;5.80;;;3.70;99.90;;;;;;5047096;28;20261;-74
2022/01/19 00:45:37;;;;;;;5.88;5.45;;;3.60;99.90;;;;;;5048201;28;20218;-74
2022/01/19 00:48:04;;;;;;;5.38;4.93;;;3.60;99.90;;;;;;5042001;28;20253;-74
2022/01/19 00:50:31;;;;;;;5.55;5.10;;;3.60;99.90;;;;;;5044280;28;20215;-71
2022/01/19 00:52:59;;;;;;;5.20;4.70;;;3.60;99.90;;;;;;5042709;28;20720;-73
2022/01/19 00:55:27;;;;;;;5.45;4.95;;;3.60;99.90;;;;;;5042472;28;20793;-74
2022/01/19 00:57:55;;;;;;;5.85;5.30;;;3.60;99.90;;;;;;5043171;28;20198;-73
2022/01/19 01:00:25;;;;;;;5.90;5.40;;;3.50;99.90;;;;;;5043568;28;20215;-73
2022/01/19 01:02:52;;;;;;;6.90;6.25;;;3.50;99.90;;;;;;5045477;28;20222;-73
2022/01/19 01:05:20;;;;;;;6.13;5.53;;;3.50;99.90;;;;;;5041123;28;20218;-73
2022/01/19 01:07:47;;;;;;;5.97;5.43;;;3.40;99.90;;;;;;5043827;28;20275;-74
2022/01/19 01:10:16;;;;;;;6.07;5.47;;;3.40;99.90;;;;;;5043635;28;20674;-73
2022/01/19 01:12:47;;;;;;;5.55;5.05;;;3.40;99.90;;;;;;5041661;28;20218;-73
2022/01/19 01:15:35;;;;;;;5.63;4.93;;;3.30;99.90;;;;;;5042023;28;20314;-72
2022/01/19 01:18:20;;;;;;;5.35;4.95;;;3.30;99.90;;;;;;5046435;28;20336;-73
2022/01/19 01:20:50;;;;;;;5.03;4.60;;;3.20;99.90;;;;;;5043433;28;20226;-74
2022/01/19 01:23:18;;;;;;;6.10;5.50;;;3.20;99.90;;;;;;5046163;28;20276;-73
2022/01/19 01:25:46;;;;;;;5.47;4.97;;;3.20;99.90;;;;;;5042217;28;20219;-73
2022/01/19 01:28:14;;;;;;;5.57;5.07;;;3.10;99.90;;;;;;5040440;28;20233;-73
2022/01/19 01:30:42;;;;;;;6.10;5.60;;;3.10;99.90;;;;;;5042784;28;20294;-73
2022/01/19 01:33:11;;;;;;;6.03;5.53;;;3.10;99.90;;;;;;5043343;28;20187;-73
2022/01/19 01:35:39;;;;;;;5.88;5.32;;;3.10;99.90;;;;;;5054540;28;20740;-73
2022/01/19 01:38:07;;;;;;;6.45;5.80;;;3.10;99.90;;;;;;5044646;28;20333;-73
2022/01/19 01:40:36;;;;;;;6.07;5.57;;;3.00;99.90;;;;;;5042538;28;20226;-73
2022/01/19 01:43:05;;;;;;;5.82;5.32;;;3.00;99.90;;;;;;5044410;28;20765;-73
2022/01/19 01:45:36;;;;;;;6.18;5.68;;;2.90;99.90;;;;;;5040419;28;20300;-74
2022/01/19 01:48:08;;;;;;;6.22;5.63;;;2.90;99.90;;;;;;5043975;28;20211;-73
2022/01/19 01:53:29;;;;;;;5.55;5.15;;;2.80;99.90;;;;;;5040888;28;20205;-73
2022/01/19 01:56:02;;;;;;;5.82;5.32;;;2.70;99.90;;;;;;5042809;28;20692;-73
2022/01/19 01:58:30;;;;;;;5.72;5.22;;;2.70;99.90;;;;;;5042553;28;20195;-73
2022/01/19 02:00:57;;;;;;;5.78;5.15;;;2.70;99.90;;;;;;5042288;28;20224;-73
2022/01/19 02:03:25;;;;;;;6.00;5.40;;;2.70;99.90;;;;;;5043274;28;20212;-72
2022/01/19 02:08:40;;;;;;;5.88;5.38;;;2.70;99.90;;;;;;5046139;28;21078;-72
2022/01/19 02:11:32;;;;;;;5.75;5.25;;;2.70;99.90;;;;;;5040858;28;20230;-73
2022/01/19 02:21:35;;;;;;;5.50;5.00;;;2.70;99.90;;;;;;5043853;28;20325;-73
2022/01/19 02:22:20;;;;;;;5.70;5.20;;;2.70;99.90;;;;;;5047050;28;20226;-73
2022/01/19 02:24:48;;;;;;;5.90;5.40;;;2.70;99.90;;;;;;5046948;28;20219;-72
2022/01/19 02:41:00;;;;;;;5.30;4.50;;;2.60;99.90;;;;;;5047227;28;20593;-73
2022/01/19 02:43:29;;;;;;;5.50;5.00;;;2.70;99.90;;;;;;5046340;28;20215;-72
2022/01/19 02:51:25;;;;;;;6.63;6.03;;;2.60;99.90;;;;;;5045223;28;20226;-73
2022/01/19 02:53:54;;;;;;;6.32;5.72;;;2.60;99.90;;;;;;5044754;28;20191;-73
2022/01/19 02:56:25;;;;;;;6.30;5.80;;;2.60;99.90;;;;;;5042483;28;20238;-73
2022/01/19 02:58:58;;;;;;;5.93;5.43;;;2.60;99.90;;;;;;5045290;28;20223;-72
2022/01/19 03:09:40;;;;;;;6.10;5.60;;;2.50;99.90;;;;;;5044472;28;20265;-73
2022/01/19 03:12:08;;;;;;;5.65;5.22;;;2.40;99.90;;;;;;5044756;28;20265;-72
2022/01/19 03:14:35;;;;;;;5.38;4.97;;;2.40;99.90;;;;;;5045269;28;20195;-73
2022/01/19 03:17:03;;;;;;;6.15;5.65;;;2.40;99.90;;;;;;5044419;28;20306;-73
2022/01/19 03:19:31;;;;;;;6.15;5.55;;;2.30;99.90;;;;;;5046900;28;20203;-73
2022/01/19 03:21:58;;;;;;;5.45;5.05;;;2.30;99.90;;;;;;5044462;28;20230;-73
2022/01/19 03:24:25;;;;;;;5.70;5.20;;;2.30;99.90;;;;;;5055818;28;20215;-73
2022/01/19 03:26:54;;;;;;;5.82;5.32;;;2.30;99.90;;;;;;5047639;28;20222;-73
2022/01/19 03:29:21;;;;;;;6.32;5.82;;;2.30;99.90;;;;;;5044054;28;20203;-72
2022/01/19 03:31:48;;;;;;;5.97;5.47;;;2.20;99.90;;;;;;5045657;28;20219;-74
2022/01/19 03:34:16;;;;;;;6.25;5.65;;;2.20;99.90;;;;;;5044235;28;20206;-73
2022/01/19 03:36:43;;;;;;;5.65;5.15;;;2.20;99.90;;;;;;5042698;28;20591;-73
2022/01/19 03:39:10;;;;;;;5.63;5.22;;;2.20;99.90;;;;;;5043991;28;20678;-73
2022/01/19 03:41:37;;;;;;;5.53;5.13;;;2.10;99.90;;;;;;5046127;28;20225;-72
2022/01/19 03:44:06;;;;;;;5.80;5.20;;;2.10;99.90;;;;;;5041178;28;20215;-72
2022/01/19 03:46:34;;;;;;;5.57;5.18;;;2.10;99.90;;;;;;5044076;28;20295;-73
2022/01/19 03:49:11;;;;;;;6.25;5.53;;;2.00;99.90;;;;;;5045299;28;20580;-72
2022/01/19 03:51:39;;;;;;;5.97;5.45;;;2.00;99.90;;;;;;5041446;28;20236;-73
2022/01/19 03:54:07;;;;;;;6.03;5.43;;;2.00;99.90;;;;;;5046595;28;20191;-73
2022/01/19 03:56:34;;;;;;;5.90;5.40;;;2.00;99.90;;;;;;5042802;28;20215;-73
2022/01/19 03:59:01;;;;;;;5.50;5.00;;;2.00;99.90;;;;;;5041236;28;20793;-73
2022/01/19 04:01:29;;;;;;;5.65;5.25;;;2.10;99.90;;;;;;5046073;28;21010;-74
2022/01/19 04:06:57;;;;;;;5.60;5.10;;;2.00;99.90;;;;;;5028537;28;20207;-73
2022/01/19 04:09:24;;;;;;;5.70;5.20;;;2.00;99.90;;;;;;5045383;28;20202;-73
2022/01/19 04:11:52;;;;;;;5.13;4.72;;;2.00;99.90;;;;;;5044622;28;20234;-73
2022/01/19 04:14:22;;;;;;;6.07;5.57;;;2.00;99.90;;;;;;5040029;28;20199;-73
2022/01/19 04:16:51;;;;;;;5.82;5.32;;;2.00;99.90;;;;;;5043578;28;20235;-72
2022/01/19 04:19:25;;;;;;;5.18;4.68;;;2.00;99.90;;;;;;5052281;28;20208;-73
2022/01/19 04:21:53;;;;;;;5.50;5.10;;;2.00;99.90;;;;;;5042653;28;20222;-73
2022/01/19 04:24:21;;;;;;;5.80;5.30;;;2.00;99.90;;;;;;5042785;28;20798;-73
2022/01/19 04:26:57;;;;;;;5.80;5.30;;;2.00;99.90;;;;;;5043897;28;20234;-73
2022/01/19 04:29:25;;;;;;;5.70;5.20;;;1.90;99.90;;;;;;5043737;28;20195;-73
2022/01/19 04:31:53;;;;;;;5.40;5.00;;;1.90;99.90;;;;;;5042354;28;20227;-73
2022/01/19 04:34:20;;;;;;;6.05;5.55;;;1.90;99.90;;;;;;5042439;28;21189;-73
2022/01/19 04:37:20;;;;;;;5.65;5.18;;;1.90;99.90;;;;;;5046379;28;20767;-73
2022/01/19 04:45:33;;;;;;;4.43;4.13;;;1.80;99.90;;;;;;5043615;28;20361;-72
2022/01/19 04:48:16;;;;;;;5.30;4.90;;;1.80;99.90;;;;;;5045146;28;20215;-73
2022/01/19 05:01:50;;;;;;;5.53;5.13;;;1.70;99.90;;;;;;5043309;28;20272;-73
2022/01/19 05:04:30;;;;;;;5.50;5.03;;;1.70;99.90;;;;;;5045147;28;20222;-73
2022/01/19 05:07:09;;;;;;;4.78;4.38;;;1.80;99.90;;;;;;5043873;28;20222;-73
2022/01/19 05:15:06;;;;;;;4.75;4.35;;;1.70;99.90;;;;;;5039148;28;20198;-72
2022/01/19 05:17:33;;;;;;;4.53;4.22;;;1.70;99.90;;;;;;5039428;28;20267;-72
2022/01/19 05:20:02;;;;;;;5.20;4.80;;;1.70;99.90;;;;;;5040400;28;20215;-72
2022/01/19 05:22:29;;;;;;;5.68;5.28;;;1.70;99.90;;;;;;5040287;28;20321;-73
2022/01/19 05:24:56;;;;;;;5.25;4.93;;;1.70;99.90;;;;;;5046173;28;20215;-73
2022/01/19 05:29:58;;;;;;;5.07;4.78;;;1.60;99.90;;;;;;5016030;28;20292;-66
2022/01/19 05:32:25;;;;;;;4.55;4.25;;;1.60;99.90;;;;;;5018243;28;20228;-66
2022/01/19 05:34:53;;;;;;;4.90;4.50;;;1.60;99.90;;;;;;5027246;28;20199;-66
2022/01/19 05:37:21;;;;;;;5.00;4.60;;;1.60;99.90;;;;;;5027657;28;20237;-66
2022/01/19 05:39:48;;;;;;;5.10;4.70;;;1.60;99.90;;;;;;5028462;28;20215;-66
2022/01/19 05:42:16;;;;;;;5.32;4.93;;;1.60;99.90;;;;;;5025289;28;20293;-66
2022/01/19 05:44:44;;;;;;;4.78;4.35;;;1.50;99.90;;;;;;5027198;28;20262;-67
2022/01/19 05:47:11;;;;;;;4.88;4.47;;;1.50;99.90;;;;;;5027234;28;20398;-66
2022/01/19 05:49:39;;;;;;;4.93;4.63;;;1.50;99.90;;;;;;5026610;28;20219;-66
2022/01/19 05:52:07;;;;;;;5.13;4.63;;;1.50;99.90;;;;;;5017119;28;20223;-66
2022/01/19 05:54:35;;;;;;;5.75;5.25;;;1.50;99.90;;;;;;5009759;28;20612;-66
2022/01/19 05:57:03;;;;;;;5.47;4.97;;;1.50;99.90;;;;;;5007291;28;20216;-66
2022/01/19 05:59:30;;;;;;;5.13;4.82;;;1.40;99.90;;;;;;5005613;28;20216;-67
2022/01/19 06:01:58;;;;;;;5.65;5.25;;;1.40;99.90;;;;;;5005920;28;20222;-67
2022/01/19 06:04:25;;;;;;;5.53;5.13;;;1.50;99.90;;;;;;5004893;28;20690;-66
2022/01/19 06:06:54;;;;;;;5.07;4.68;;;1.40;99.90;;;;;;5004331;28;20223;-66
2022/01/19 06:09:33;;;;;;;4.53;4.22;;;1.50;99.90;;;;;;4997062;28;20258;-66
2022/01/19 06:12:04;;;;;;;5.43;5.03;;;1.50;99.90;;;;;;5000031;28;20220;-66
2022/01/19 06:14:32;;;;;;;5.10;4.70;;;1.50;99.90;;;;;;5009779;28;20243;-67
2022/01/19 06:16:59;;;;;;;5.22;4.80;;;1.50;99.90;;;;;;5011260;28;20841;-67
2022/01/19 06:19:26;;;;;;;4.97;4.57;;;1.50;99.90;;;;;;5003856;28;20224;-67
2022/01/19 06:21:53;;;;;;;4.75;4.45;;;1.50;99.90;;;;;;5016817;28;20215;-67
2022/01/19 06:24:20;;;;;;;4.80;4.50;;;1.50;99.90;;;;;;5020364;28;20483;-66
2022/01/19 06:26:48;;;;;;;5.43;5.03;;;1.50;99.90;;;;;;5034479;28;20281;-65
2022/01/19 06:29:16;;;;;;;4.90;4.50;;;1.40;99.90;;;;;;5031719;28;20279;-67
2022/01/19 06:31:43;;;;;;;4.68;4.38;;;1.40;99.90;;;;;;5023763;28;20234;-66
2022/01/19 06:34:11;;;;;;;5.00;4.65;;;1.40;99.90;;;;;;5032658;28;20199;-66
2022/01/19 06:36:38;;;;;;;5.20;4.80;;;1.40;99.90;;;;;;5033230;28;20224;-66
2022/01/19 06:39:05;;;;;;;5.38;4.97;;;1.40;99.90;;;;;;5035781;28;20227;-66
2022/01/19 06:41:32;;;;;;;5.50;5.10;;;1.40;99.90;;;;;;5034638;28;20231;-66
2022/01/19 06:44:00;;;;;;;6.25;5.05;;;1.40;99.90;;;;;;5039897;28;20662;-66
2022/01/19 06:46:28;;;;;;;5.35;4.63;;;1.40;99.90;;;;;;5030605;28;20230;-66
2022/01/19 06:48:55;;;;;;;4.85;4.55;;;1.30;99.90;;;;;;5036592;28;20226;-66
2022/01/19 06:51:23;;;;;;;5.60;5.20;;;1.30;99.90;;;;;;5034465;28;20218;-66
2022/01/19 06:53:50;;;;;;;5.57;5.18;;;1.30;99.90;;;;;;5032972;28;20195;-66
2022/01/19 06:56:17;;;;;;;5.10;4.70;;;1.20;99.90;;;;;;5040284;28;20230;-66
2022/01/19 06:58:44;;;;;;;4.72;4.43;;;1.20;99.90;;;;;;5038849;28;20215;-66
2022/01/19 07:01:11;;;;;;;4.80;4.50;;;1.20;99.90;;;;;;5038699;28;20230;-65
2022/01/19 07:03:39;;;;;;;5.57;5.18;;;1.20;99.90;;;;;;5033897;28;20218;-66
2022/01/19 07:06:07;;;;;;;5.03;4.68;;;1.20;99.90;;;;;;5037745;28;20228;-66
2022/01/19 07:08:35;;;;;;;5.40;5.00;;;1.20;99.90;;;;;;5035292;28;20223;-67
2022/01/19 07:11:02;;;;;;;4.80;4.50;;;1.30;99.90;;;;;;5042845;28;21286;-66
2022/01/19 07:13:29;;;;;;;4.70;4.40;;;1.30;99.90;;;;;;5040561;28;20196;-67
2022/01/19 07:15:56;;;;;;;5.20;4.80;;;1.30;99.90;;;;;;5040298;28;20191;-66
2022/01/19 07:18:23;;;;;;;5.68;5.28;;;1.20;99.90;;;;;;5036596;28;20293;-66
2022/01/19 07:20:51;;;;;;;5.00;4.63;;;1.20;99.90;;;;;;5031000;28;20270;-66
2022/01/19 07:23:18;;;;;;;4.97;4.65;;;1.30;99.90;;;;;;5039063;28;20532;-66
2022/01/19 07:25:45;;;;;;;5.28;4.88;;;1.30;99.90;;;;;;5037662;28;20242;-66
2022/01/19 07:28:12;;;;;;;5.20;4.80;;;1.30;99.90;;;;;;5034186;28;20767;-66
2022/01/19 07:30:40;;;;;;;5.22;4.78;;;1.30;99.90;;;;;;5035362;28;20223;-67
2022/01/19 07:33:07;;;;;;;5.03;4.65;;;1.30;99.90;;;;;;5009505;28;20639;-66
2022/01/19 07:35:34;;;;;;;5.20;4.80;;;1.30;99.90;;;;;;5010695;28;20250;-66
2022/01/19 07:38:02;;;;;;;4.50;4.20;;;1.30;99.90;;;;;;5008574;28;20279;-66
2022/01/19 07:40:29;;;;;;;5.07;4.68;;;1.20;99.90;;;;;;5002077;28;20200;-67
2022/01/19 07:42:56;;;;;;;5.13;4.72;;;1.20;99.90;;;;;;5003435;28;20212;-66
2022/01/19 07:45:23;;;;;;;4.85;4.55;;;1.20;99.90;;;;;;5004966;28;20215;-66
2022/01/19 07:47:50;;;;;;;5.13;4.72;;;1.20;99.90;;;;;;5006117;28;20884;-67
2022/01/19 07:50:17;;;;;;;4.70;4.40;;;1.30;99.90;;;;;;5002142;28;20201;-66
2022/01/19 07:52:45;;;;;;;5.28;4.88;;;1.30;99.90;;;;;;5009716;28;20278;-66
2022/01/19 07:55:13;;;;;;;5.43;5.03;;;1.40;99.90;;;;;;5000426;28;20239;-66
2022/01/19 07:57:45;;;;;;;5.03;4.60;;;1.40;99.90;;;;;;5000764;28;20290;-66
2022/01/19 08:00:13;;;;;;;4.95;4.65;;;1.50;99.90;;;;;;5002754;28;20683;-66
2022/01/19 08:02:40;;;;;;;5.47;4.97;;;1.60;99.90;;;;;;5022061;28;20725;-66
2022/01/19 08:05:08;;;;;;;4.72;4.43;;;1.60;99.90;;;;;;5032253;28;20219;-66
2022/01/19 08:07:35;;;;;;;5.10;4.70;;;1.70;99.90;;;;;;5033727;28;20228;-66
2022/01/19 08:10:03;;;;;;;5.18;4.78;;;1.70;99.90;;;;;;5035969;28;20221;-66
2022/01/19 08:12:32;;;;;;;6.45;5.95;;;1.70;99.90;;;;;;5034967;28;20741;-66
2022/01/19 08:14:59;;;;;;;5.68;5.28;;;1.70;99.90;;;;;;5035171;28;20283;-68
2022/01/19 08:17:27;;;;;;;6.32;5.82;;;1.60;99.90;;;;;;5034030;28;20295;-68
2022/01/19 08:19:54;;;;;;;5.78;5.32;;;1.60;99.90;;;;;;5039203;28;20636;-67
2022/01/19 08:22:22;;;;;;;5.78;5.28;;;2.00;99.90;;;;;;5031441;28;20301;-68
2022/01/19 08:24:49;;;;;;;5.50;5.10;;;3.00;99.90;;;;;;5033968;28;20219;-68
2022/01/19 08:27:16;;;;;;;5.25;4.82;;;4.20;99.90;;;;;;5037028;28;20223;-68
2022/01/19 08:29:45;;;;;;;5.65;5.20;;;5.20;99.90;;;;;;5052611;28;20234;-68
2022/01/19 08:32:12;;;;;;;5.10;4.70;;;6.10;99.90;;;;;;5049255;28;20223;-69
2022/01/19 08:34:39;;;;;;;5.18;4.75;;;6.80;99.90;;;;;;5050895;28;20198;-68
2022/01/19 08:37:08;;;;;;;5.35;4.78;;;7.50;99.90;;;;;;5047638;28;20287;-69
2022/01/19 08:39:38;;;;;;;5.10;4.70;;;7.70;99.90;;;;;;5050198;28;20278;-69
2022/01/19 08:42:06;;;;;;;5.28;4.82;;;8.10;99.90;;;;;;5049069;28;20219;-69
2022/01/19 08:44:33;;;;;;;4.90;4.60;;;8.50;99.90;;;;;;5047935;28;20195;-68
2022/01/19 08:47:01;;;;;;;5.07;4.57;;;8.80;99.90;;;;;;5046400;28;20223;-69
2022/01/19 08:49:28;;;;;;;5.18;4.78;;;9.10;99.90;;;;;;5040798;28;20497;-69
2022/01/19 08:51:55;;;;;;;4.65;4.25;;;9.50;99.90;;;;;;5041764;28;20222;-70
2022/01/19 08:54:22;;;;;;;4.72;4.35;;;9.80;99.50;;;;;;5043086;28;20195;-69
2022/01/19 08:56:49;;;;;;;4.65;4.25;;;10.10;98.90;;;;;;5045389;28;20697;-70
2022/01/19 08:59:16;;;;;;;4.60;4.20;;;10.30;98.20;;;;;;5040133;28;20219;-72
2022/01/19 09:01:43;;;;;;;5.38;4.88;;;10.60;98.00;;;;;;5038363;28;20854;-69
2022/01/19 09:04:12;;;;;;;5.15;4.65;;;10.70;98.00;;;;;;5044257;28;20198;-71
2022/01/19 09:06:39;;;;;;;4.70;4.30;;;10.60;97.70;;;;;;5044445;28;20257;-72
2022/01/19 09:09:06;;;;;;;5.15;4.57;;;10.90;97.60;;;;;;5042658;28;20234;-71
2022/01/19 09:11:33;;;;;;;5.10;4.65;;;11.00;96.90;;;;;;5046582;28;20286;-70
2022/01/19 09:14:06;;;;;;;4.90;4.20;;;11.00;96.70;;;;;;5037916;28;20218;-69
2022/01/19 09:16:34;;;;;;;5.05;4.22;;;11.10;96.40;;;;;;5041587;28;20345;-72
2022/01/19 09:19:02;;;;;;;4.47;4.07;;;11.20;96.30;;;;;;5040863;28;20640;-73
2022/01/19 09:21:30;;;;;;;5.68;4.75;;;11.60;95.80;;;;;;5050065;28;20645;-76
2022/01/19 09:23:58;;;;;;;4.43;4.03;;;11.60;95.50;;;;;;5038085;28;20257;-73
2022/01/19 09:26:25;;;;;;;5.40;4.32;;;11.90;94.90;;;;;;5041937;28;20218;-73
2022/01/19 09:28:52;;;;;;;4.50;4.10;;;12.80;93.80;;;;;;5047590;28;20832;-70
2022/01/19 09:31:19;;;;;;;5.15;4.65;;;13.80;91.70;;;;;;5044894;28;20729;-69
2022/01/19 09:33:54;;;;;;;5.78;5.18;;;15.20;90.10;;;;;;5048169;28;20199;-75
2022/01/19 09:36:31;;;;;;;4.70;4.28;;;16.50;82.70;;;;;;5038634;28;20197;-72
2022/01/19 09:39:00;;;;;;;4.35;3.95;;;17.70;78.70;;;;;;5053740;28;20607;-69
2022/01/19 09:41:28;;;;;;;4.30;3.90;;;18.80;73.50;;;;;;5043738;28;20203;-69
2022/01/19 09:43:56;;;;;;;5.20;4.70;;;19.20;71.00;;;;;;5044839;28;20301;-69
2022/01/19 09:46:23;;;;;;;6.45;3.60;;;19.70;68.80;;;;;;5038833;28;20218;-68
2022/01/19 09:48:50;;;;;;;4.43;4.03;;;20.20;67.00;;;;;;5037793;28;21460;-70
2022/01/19 09:51:18;;;;;;;4.75;4.20;;;20.10;66.00;;;;;;5035981;28;20207;-70
2022/01/19 09:53:47;;;;;;;4.63;4.15;;;20.10;65.40;;;;;;5038070;28;20636;-70
2022/01/19 09:56:19;;;;;;;5.97;4.13;;;19.90;65.00;;;;;;5038507;28;20191;-70
2022/01/19 09:58:46;;;;;;;4.60;4.20;;;19.10;65.40;;;;;;5038815;28;20315;-70
2022/01/19 10:01:18;;;;;;;4.68;4.25;;;17.80;69.20;;;;;;5042738;28;20240;-70
2022/01/19 10:03:45;;;;;;;7.13;4.63;;;16.40;72.50;;;;;;5034716;28;20602;-70
2022/01/19 10:06:13;;;;;;;5.13;4.57;;;15.10;76.60;;;;;;5034852;28;20305;-71
2022/01/19 10:08:42;;;;;;;6.97;4.80;;;14.20;80.50;;;;;;5041272;28;20228;-71
2022/01/19 10:11:16;;;;;;;7.20;5.07;;;13.40;83.60;;;;;;5049599;28;20201;-72
2022/01/19 10:19:23;;;;;;;6.25;5.45;;;12.20;89.50;;;;;;5038971;28;20226;-72
2022/01/19 10:22:02;;;;;;;7.03;5.72;;;12.10;90.50;;;;;;5042555;28;20206;-71
2022/01/19 10:24:46;;;;;;;7.63;4.97;;;11.90;90.80;;;;;;5045628;28;20198;-69
2022/01/19 10:27:22;;;;;;;7.68;4.88;;;12.00;91.00;;;;;;5046659;28;20232;-72
2022/01/19 10:29:52;;;;;;;4.85;4.40;;;11.80;91.10;;;;;;5044510;28;20613;-70
2022/01/19 10:32:21;;;;;;;5.57;5.07;;;11.90;90.90;;;;;;5051834;28;20230;-70
2022/01/19 10:34:49;;;;;;;5.63;4.65;;;12.00;90.60;;;;;;5050353;28;20297;-71
2022/01/19 10:37:23;;;;;;;8.27;4.45;;;12.20;90.50;;;;;;5048195;28;20705;-71
2022/01/19 10:39:52;;;;;;;6.63;5.13;;;12.30;90.40;;;;;;5046972;28;20215;-71
2022/01/19 10:42:20;;;;;;;4.93;4.47;;;12.30;90.30;;;;;;5047459;28;20269;-75
2022/01/19 10:44:51;;;;;;;5.25;4.75;;;12.40;90.00;;;;;;5052491;28;20352;-72
2022/01/19 10:47:18;;;;;;;4.63;4.05;;;12.10;90.10;;;;;;5042081;28;20223;-73
2022/01/19 10:49:52;;;;;;;7.30;4.55;;;12.10;90.60;;;;;;5047560;28;20223;-73
2022/01/19 10:52:30;;;;;;;6.40;4.82;;;12.10;90.50;;;;;;5042383;28;21530;-71
2022/01/19 10:54:58;;;;;;;4.40;4.00;;;12.30;90.40;;;;;;5040335;28;20205;-73
2022/01/19 10:57:26;;;;;;;6.53;4.80;;;12.30;90.30;;;;;;5041769;28;20785;-72
2022/01/19 11:00:17;;;;;;;4.53;4.13;;;12.40;90.10;;;;;;5042773;28;20219;-74
2022/01/19 11:02:49;;;;;;;4.53;4.10;;;12.30;89.00;;;;;;5040079;28;20219;-70
2022/01/19 11:05:17;;;;;;;5.22;4.05;;;12.00;90.20;;;;;;5046388;28;20202;-72
2022/01/19 11:07:45;;;;;;;4.75;4.32;;;11.90;90.50;;;;;;5045156;28;20219;-72
2022/01/19 11:10:17;;;;;;;4.55;4.15;;;12.30;90.50;;;;;;5044315;28;20206;-71
2022/01/19 11:12:48;;;;;;;4.40;4.00;;;12.50;90.10;;;;;;5043022;28;20309;-73
2022/01/19 11:15:19;;;;;;;4.13;3.63;;;12.70;88.70;;;;;;5044989;28;20229;-73
2022/01/19 11:17:47;;;;;;;4.22;3.83;;;12.50;88.50;;;;;;5045719;28;20308;-71
2022/01/19 11:20:17;;;;;;;6.63;4.22;;;12.30;88.40;;;;;;5051940;28;20253;-71
2022/01/19 11:22:58;;;;;;;4.43;3.83;;;12.30;88.70;;;;;;5051540;28;20359;-72
2022/01/19 11:25:33;;;;;;;6.30;4.93;;;12.50;88.30;;;;;;5049422;28;20203;-71
2022/01/19 11:28:00;;;;;;;7.03;4.65;;;12.50;87.60;;;;;;5049651;28;20226;-72
2022/01/19 11:30:31;;;;;;;4.50;4.10;;;12.40;88.00;;;;;;5086771;22;20282;-75
2022/01/19 11:33:23;;;;;;;5.55;4.28;;;12.30;89.50;;;;;;5068439;28;20271;-73
2022/01/19 11:35:51;;;;;;;5.97;4.43;;;12.10;89.20;;;;;;5069830;28;20244;-74
2022/01/19 11:38:39;;;;;;;4.97;4.13;;;12.10;90.00;;;;;;5065750;28;20213;-75
2022/01/19 11:41:35;;;;;;;5.15;4.47;;;12.10;89.90;;;;;;5044572;28;20632;-75
2022/01/19 11:44:02;;;;;;;5.25;4.75;;;12.00;90.00;;;;;;5038800;28;20720;-75
2022/01/19 11:46:38;;;;;;;6.93;4.47;;;12.10;90.20;;;;;;5045310;28;20219;-75
2022/01/19 11:49:07;;;;;;;5.70;4.25;;;12.10;90.20;;;;;;5040868;28;20218;-75
2022/01/19 11:51:36;;;;;;;5.35;4.85;;;11.90;90.20;;;;;;5040285;28;20528;-73
2022/01/19 11:54:06;;;;;;;7.30;4.68;;;11.80;90.30;;;;;;5040872;28;20218;-75
2022/01/19 11:56:39;;;;;;;6.25;4.35;;;11.80;90.60;;;;;;5051152;28;20187;-74
2022/01/19 11:59:08;;;;;;;6.88;4.10;;;12.00;90.40;;;;;;5050550;28;20252;-75
2022/01/19 12:01:37;;;;;;;5.35;4.80;;;12.20;90.00;;;;;;5049441;28;20198;-72
2022/01/19 12:04:16;;;;;;;5.00;4.43;;;12.30;90.00;;;;;;5054381;28;20688;-74
2022/01/19 12:06:43;;;;;;;5.07;4.35;;;12.50;89.70;;;;;;5045477;28;20260;-75
2022/01/19 12:09:12;;;;;;;6.72;4.60;;;12.50;89.50;;;;;;5041316;28;20322;-74
2022/01/19 12:11:48;;;;;;;4.47;4.05;;;12.40;89.50;;;;;;5044421;28;20838;-76
2022/01/19 12:14:18;;;;;;;5.40;4.60;;;12.10;90.00;;;;;;5046116;28;20215;-75
2022/01/19 12:17:04;;;;;;;5.82;4.25;;;11.90;90.40;;;;;;5044169;28;20460;-74
2022/01/19 12:19:40;;;;;;;7.75;4.72;;;11.80;90.50;;;;;;5040489;28;20233;-74
2022/01/19 12:22:20;;;;;;;6.45;4.38;;;11.90;90.40;;;;;;5043572;28;20237;-74
2022/01/19 12:24:56;;;;;;;4.53;4.10;;;12.10;90.20;;;;;;5041985;28;20248;-74
2022/01/19 12:27:27;;;;;;;4.65;4.25;;;12.10;90.00;;;;;;5041979;28;20752;-75
2022/01/19 12:30:06;;;;;;;5.53;4.15;;;12.20;90.00;;;;;;5037322;28;20304;-76
2022/01/19 12:32:44;;;;;;;4.85;4.32;;;12.20;90.00;;;;;;5045484;28;20195;-75
2022/01/19 12:35:31;;;;;;;5.35;4.30;;;12.20;89.20;;;;;;5048689;28;20308;-75
2022/01/19 12:37:59;;;;;;;5.50;4.72;;;12.10;90.70;;;;;;5041489;28;20598;-75
2022/01/19 12:40:48;;;;;;;4.50;4.10;;;11.90;89.70;;;;;;5045252;28;20721;-75
2022/01/19 12:43:33;;;;;;;4.70;4.30;;;12.00;90.30;;;;;;5043505;28;20210;-72
2022/01/19 12:46:07;;;;;;;4.70;4.30;;;12.00;89.60;;;;;;5045153;28;20237;-73
2022/01/19 12:48:38;;;;;;;6.40;4.07;;;11.90;90.00;;;;;;5050811;28;20194;-76
2022/01/19 12:51:05;;;;;;;4.30;3.90;;;11.50;90.00;;;;;;5039959;28;20226;-76
2022/01/19 12:53:33;;;;;;;4.22;3.83;;;11.30;90.30;;;;;;5054237;28;20222;-75
2022/01/19 12:56:04;;;;;;;4.60;4.07;;;11.20;90.30;;;;;;5048978;28;20603;-75
2022/01/19 12:58:34;;;;;;;4.57;4.03;;;11.20;90.50;;;;;;5046550;28;20675;-74
2022/01/19 13:01:04;;;;;;;4.90;4.38;;;11.40;90.50;;;;;;5046518;28;20450;-76
2022/01/19 13:03:36;;;;;;;4.25;3.72;;;11.20;90.40;;;;;;5042308;28;20201;-73
2022/01/19 13:06:06;;;;;;;4.10;3.80;;;11.20;90.70;;;;;;5041719;28;20231;-76
2022/01/19 13:08:44;;;;;;;5.90;3.67;;;11.30;90.60;;;;;;5043545;28;20284;-75
2022/01/19 13:11:29;;;;;;;4.70;3.78;;;11.60;90.50;;;;;;5044825;28;20230;-75
2022/01/19 13:14:01;;;;;;;4.65;4.20;;;11.70;90.00;;;;;;5037856;28;20205;-75
2022/01/19 13:16:38;;;;;;;4.22;3.88;;;11.40;90.40;;;;;;5046699;28;20588;-76
2022/01/19 13:19:10;;;;;;;4.60;4.10;;;11.50;90.40;;;;;;5044007;28;20232;-76
2022/01/19 13:21:38;;;;;;;4.20;3.75;;;11.50;90.00;;;;;;5048516;28;20577;-76
2022/01/19 13:24:10;;;;;;;4.47;3.55;;;11.50;90.00;;;;;;5039782;28;20661;-75
2022/01/19 13:26:46;;;;;;;5.90;4.13;;;11.40;90.20;;;;;;5041992;28;20354;-76
2022/01/19 13:29:19;;;;;;;4.30;3.35;;;11.40;89.80;;;;;;5042814;28;20525;-75
2022/01/19 13:32:02;;;;;;;4.13;3.83;;;11.60;90.20;;;;;;5039438;28;20226;-75
2022/01/19 13:34:32;;;;;;;3.85;3.33;;;11.70;89.40;;;;;;5040865;28;20220;-75
2022/01/19 13:37:02;;;;;;;4.15;3.85;;;11.70;89.50;;;;;;5043125;28;20218;-75
2022/01/19 13:39:33;;;;;;;4.10;3.70;;;11.60;89.80;;;;;;5043067;28;20231;-73
2022/01/19 13:42:02;;;;;;;7.40;4.68;;;11.60;89.60;;;;;;5042311;28;20744;-74
2022/01/19 13:44:37;;;;;;;4.00;3.70;;;11.50;89.80;;;;;;5045757;28;20199;-74
2022/01/19 13:47:09;;;;;;;5.53;4.15;;;11.40;89.50;;;;;;5048137;28;20221;-75
2022/01/19 13:49:39;;;;;;;4.35;3.58;;;11.30;89.70;;;;;;5040630;28;20727;-75
2022/01/19 13:52:07;;;;;;;4.53;4.00;;;11.00;89.90;;;;;;5048886;28;20214;-75
2022/01/19 13:54:38;;;;;;;4.15;3.75;;;10.80;90.50;;;;;;5049162;28;20256;-73
2022/01/19 13:57:05;;;;;;;5.45;3.95;;;10.70;90.60;;;;;;5047546;28;20625;-74
2022/01/19 13:59:32;;;;;;;4.32;3.92;;;10.70;90.60;;;;;;5052605;28;20217;-75
2022/01/19 14:02:00;;;;;;;4.35;3.75;;;10.40;90.60;;;;;;5047666;28;20233;-74
2022/01/19 14:04:30;;;;;;;3.70;3.40;;;10.40;91.00;;;;;;5045827;28;20511;-75
2022/01/19 14:07:05;;;;;;;4.30;3.90;;;10.40;91.10;;;;;;5045571;28;20268;-76
2022/01/19 14:09:34;;;;;;;5.07;4.25;;;10.20;91.00;;;;;;5044821;28;20261;-74
2022/01/19 14:12:06;;;;;;;4.03;3.72;;;10.00;90.90;;;;;;5044468;28;20809;-76
2022/01/19 14:14:35;;;;;;;4.22;3.83;;;9.80;91.10;;;;;;5051454;28;20202;-73
2022/01/19 14:17:04;;;;;;;5.47;3.75;;;9.30;91.80;;;;;;5058832;28;20310;-75
2022/01/19 14:19:33;;;;;;;4.28;3.88;;;9.00;92.50;;;;;;5054014;28;20461;-73